Ivor, Virginia
Current Conditions -  °F | °C
As of 10:09 AM on Wednesday 22 Oct 2014 (Local Time) from KAKQ Reporting Station
Light Rain Light Rain  
Wind Chill: 53°   Ceiling: 800
Heat Index: 53°   Visibility: 3mi
Dew Point: 50°   Wind: 6mph
Humidity: 89%   Direction: 300°WNW
Pressure: 29.89"   Gusts: NA
Location:  36.9°N, 76.9°W
Report Text: KAKQ 221409Z AUTO 30005KT 3SM -RA BR BKN008 OVC012 12/10 A2989 RMK AO2 RAB1355 CIG 006V011 P0001 T01170100 TSNO
Loading
Personal Weather Stations






























Interactive Weather Map
Tropical Storm Tracking
New forecast layout! Learn more

10-Day Weather Forecast

Advertisements
Track Severe Weather on mobile